Airfield :
LOGIN :

Register | Disclaimer

   EN    FR    IT 

 










Legend :    VFR   Marginal VFR   IFR   Intensive IFR   Very Intensive IFR
Visi :
Ceiling :
>= 8 km
>= 3000ft
5 to 8 km
1000 to 3000 ft
1500m to 5 km
500 to 1000 ft
800 to 1500m
200 to 500 ft
< 800m
< 200 ft
Symbols :   Thunderstorms  Fog  Heavy snow  Heavy precipitations  Wind > 20 kt
SIGMETs :     Misc.  Thunderstorms  Icing  Turbulence  Mountain Waves  Volcanic Ashes







- Airport Elevation : 119 ft
- IATA code : WAT


EIWF - Waterford

CURRENT METAR :
  • 191630Z 22015KT 9999 BKN010 15/13 Q1019

EXPIRED METARs :
  • 191600Z 21013KT 9999 BKN013 15/13 Q1019
  • 191530Z 21012KT 9999 SCT010 BKN014 14/13 Q1019
  • 191500Z 21013KT 9999 SCT010 BKN017 14/13 Q1019
  • 191430Z 21012KT 180V240 9999 BKN007 15/13 Q1020
  • 191400Z 21013KT 9999 BKN007 15/13 Q1020

TAF TAF EIWF
Valid from the 19 at 15:00 until the 20 at 00:00 UTC


191400Z 1915/1924 20012KT 9999 SCT007 BKN020
BECMG 1915/1917 -DZ BKN007
TEMPO 1917/1924 4000 BR DZ SCT003 BKN005
PROB40
TEMPO 1918/1924 2000 DZ BKN003
ATIS : +353 51 877 000
No reported NOTAMs for that airfield.



MET'MAP, your aeronautical weather chart ! - Copyright ORBIFLY December 2007 - Disclaimer

ORBIFLY MET'MAP TEAM :

Programming & Development : Alexandra Zaïnal
Concept & Development : Baudouin d'Aumeries
Co-Development & Prog : Marc-Olivier Méhu
Technical & hardware support : Manuel Goepfert

Contact : metmap@orbifly.com




SOURCES & CREDITS :

   NOAA